Time;durP1;ratioP1;P1;durP2;ratioP2;P2;SDS_P1;SDS_P2;PMS_P1;PMS_P2;Temp;Humidity;BMP_temperature;BMP_pressure;BME280_temperature;BME280_humidity;BME280_pressure;Samples;Min_cycle;Max_cycle;Signal;HPM_P1;HPM_P2
2022/09/20 00:00:27;;;;;;;2.55;1.08;;;;;;;;;;4970342;28;20059;-62
2022/09/20 00:02:53;;;;;;;3.03;0.85;;;;;;;;;;4958856;28;20063;-66
2022/09/20 00:05:20;;;;;;;2.92;1.10;;;;;;;;;;4950362;29;20110;-63
2022/09/20 00:07:48;;;;;;;3.88;1.13;;;;;;;;;;4947107;28;20055;-65
2022/09/20 00:10:14;;;;;;;1.27;0.80;;;;;;;;;;4950609;28;20098;-57
2022/09/20 00:12:41;;;;;;;4.43;0.93;;;;;;;;;;4961975;28;20318;-67
2022/09/20 00:15:09;;;;;;;2.00;1.00;;;;;;;;;;4950261;29;20438;-65
2022/09/20 00:17:35;;;;;;;1.88;0.90;;;;;;;;;;4950333;29;20059;-56
2022/09/20 00:20:02;;;;;;;1.50;0.70;;;;;;;;;;4966537;28;20058;-57
2022/09/20 00:22:29;;;;;;;2.20;0.85;;;;;;;;;;4969705;28;20149;-54
2022/09/20 00:24:56;;;;;;;2.55;0.85;;;;;;;;;;4947446;28;20170;-69
2022/09/20 00:27:23;;;;;;;5.07;1.00;;;;;;;;;;4950232;29;20122;-67
2022/09/20 00:29:49;;;;;;;3.40;1.10;;;;;;;;;;4945808;28;20330;-61
2022/09/20 00:32:16;;;;;;;2.53;0.98;;;;;;;;;;4950165;29;20047;-69
2022/09/20 00:37:39;;;;;;;3.90;0.88;;;;;;;;;;4896844;29;20104;-60
2022/09/20 00:40:08;;;;;;;2.50;0.80;;;;;;;;;;4925099;28;20086;-64
2022/09/20 00:42:35;;;;;;;1.40;0.80;;;;;;;;;;4930457;29;20055;-64
2022/09/20 00:45:02;;;;;;;1.80;0.93;;;;;;;;;;4938208;28;20051;-65
2022/09/20 00:47:32;;;;;;;1.58;0.80;;;;;;;;;;4949725;28;20052;-58
2022/09/20 00:50:01;;;;;;;1.02;0.60;;;;;;;;;;4954881;28;20101;-61
2022/09/20 00:52:28;;;;;;;2.88;1.00;;;;;;;;;;4968866;28;20082;-63
2022/09/20 00:54:56;;;;;;;2.47;0.85;;;;;;;;;;4963237;28;20062;-69
2022/09/20 00:57:24;;;;;;;5.90;0.88;;;;;;;;;;4968578;28;20070;-66
2022/09/20 00:59:51;;;;;;;2.13;0.90;;;;;;;;;;4960957;28;20047;-61
2022/09/20 01:02:20;;;;;;;2.75;0.80;;;;;;;;;;4949169;29;20051;-59
2022/09/20 01:04:48;;;;;;;2.20;1.00;;;;;;;;;;4945953;28;20082;-66
2022/09/20 01:07:16;;;;;;;1.35;0.70;;;;;;;;;;4948041;28;20047;-65
2022/09/20 01:09:43;;;;;;;4.22;0.80;;;;;;;;;;4946986;28;20110;-65
2022/09/20 01:12:13;;;;;;;2.67;0.80;;;;;;;;;;4967501;28;20051;-63
2022/09/20 01:14:42;;;;;;;1.40;0.60;;;;;;;;;;4968496;28;20131;-68
2022/09/20 01:17:09;;;;;;;2.25;0.88;;;;;;;;;;4955004;28;20120;-65
2022/09/20 01:19:39;;;;;;;0.68;0.60;;;;;;;;;;4949447;28;20051;-59
2022/09/20 01:22:08;;;;;;;1.50;0.60;;;;;;;;;;4930255;28;20146;-59
2022/09/20 01:24:38;;;;;;;2.83;0.85;;;;;;;;;;4946289;28;20105;-58
2022/09/20 01:27:13;;;;;;;3.38;0.90;;;;;;;;;;4945197;28;20070;-62
2022/09/20 01:29:57;;;;;;;3.40;0.70;;;;;;;;;;4949184;29;20059;-61
2022/09/20 01:32:28;;;;;;;2.20;0.65;;;;;;;;;;4918898;28;20055;-57
2022/09/20 01:34:57;;;;;;;4.05;1.02;;;;;;;;;;4929589;29;20052;-58
2022/09/20 01:37:23;;;;;;;;;;;;;;;;;;4939933;28;20059;-60
2022/09/20 01:39:54;;;;;;;1.67;0.85;;;;;;;;;;4949255;29;19926;-67
2022/09/20 01:42:23;;;;;;;1.77;0.60;;;;;;;;;;4936897;28;20055;-58
2022/09/20 01:44:56;;;;;;;2.58;1.00;;;;;;;;;;4949428;28;20055;-62
2022/09/20 01:47:29;;;;;;;2.58;0.70;;;;;;;;;;4935994;28;20126;-61
2022/09/20 01:50:00;;;;;;;1.80;0.70;;;;;;;;;;4946059;28;20122;-58
2022/09/20 01:52:39;;;;;;;5.43;0.95;;;;;;;;;;4933233;28;20055;-57
2022/09/20 01:55:21;;;;;;;1.90;0.73;;;;;;;;;;4952037;28;20054;-60
2022/09/20 01:58:10;;;;;;;4.05;0.70;;;;;;;;;;4959563;28;20085;-64
2022/09/20 02:00:45;;;;;;;1.05;0.60;;;;;;;;;;4970355;28;20054;-53
2022/09/20 02:03:30;;;;;;;2.72;0.70;;;;;;;;;;4983868;28;20108;-60
2022/09/20 02:06:27;;;;;;;1.75;0.63;;;;;;;;;;4969861;28;20128;-59
2022/09/20 02:09:07;;;;;;;1.40;0.70;;;;;;;;;;4892054;29;20079;-59
2022/09/20 02:11:39;;;;;;;4.05;0.73;;;;;;;;;;4959129;28;20305;-60
2022/09/20 02:14:15;;;;;;;2.20;0.70;;;;;;;;;;4966504;28;20054;-58
2022/09/20 02:16:50;;;;;;;1.63;0.60;;;;;;;;;;4971030;28;20062;-61
2022/09/20 02:19:31;;;;;;;4.22;0.80;;;;;;;;;;4966685;28;20054;-64
2022/09/20 02:22:05;;;;;;;2.55;0.73;;;;;;;;;;4971606;28;20581;-65
2022/09/20 02:24:38;;;;;;;0.85;0.40;;;;;;;;;;4966957;28;20068;-59
2022/09/20 02:27:13;;;;;;;1.25;0.57;;;;;;;;;;4968836;28;20058;-64
2022/09/20 02:29:45;;;;;;;4.10;0.88;;;;;;;;;;4967906;28;20085;-64
2022/09/20 02:32:18;;;;;;;2.78;0.90;;;;;;;;;;4971004;28;20066;-56
2022/09/20 02:34:55;;;;;;;1.63;0.63;;;;;;;;;;4966514;28;20277;-61
2022/09/20 02:37:36;;;;;;;1.73;0.70;;;;;;;;;;4971143;28;20058;-62
2022/09/20 02:40:13;;;;;;;3.70;0.65;;;;;;;;;;4964586;28;20065;-66
2022/09/20 02:42:44;;;;;;;2.38;0.60;;;;;;;;;;4970456;28;20065;-64
2022/09/20 02:45:16;;;;;;;1.55;0.60;;;;;;;;;;4966459;28;20081;-62
2022/09/20 02:47:43;;;;;;;1.75;0.60;;;;;;;;;;4987284;28;20125;-52
2022/09/20 02:50:23;;;;;;;1.20;0.80;;;;;;;;;;4983940;28;20054;-55
2022/09/20 02:52:57;;;;;;;2.13;0.77;;;;;;;;;;4970470;28;20051;-56
2022/09/20 02:55:32;;;;;;;3.17;0.75;;;;;;;;;;4967111;28;20054;-69
2022/09/20 02:58:04;;;;;;;3.17;0.80;;;;;;;;;;4970957;28;20054;-53
2022/09/20 03:00:34;;;;;;;3.95;0.80;;;;;;;;;;4967145;28;20105;-63
2022/09/20 03:03:06;;;;;;;1.85;0.68;;;;;;;;;;4971387;28;20061;-54
2022/09/20 03:05:36;;;;;;;2.33;0.77;;;;;;;;;;4967222;28;20112;-51
2022/09/20 03:08:14;;;;;;;2.42;0.75;;;;;;;;;;4969796;28;20066;-64
2022/09/20 03:10:47;;;;;;;2.30;0.73;;;;;;;;;;4966665;28;20070;-66
2022/09/20 03:13:23;;;;;;;2.50;0.73;;;;;;;;;;4986843;28;20090;-58
2022/09/20 03:15:57;;;;;;;1.42;0.63;;;;;;;;;;4965872;28;20070;-59
2022/09/20 03:18:31;;;;;;;1.13;0.63;;;;;;;;;;4970467;28;20063;-57
2022/09/20 03:21:04;;;;;;;2.92;0.80;;;;;;;;;;4970592;28;20062;-67
2022/09/20 03:23:38;;;;;;;4.57;1.00;;;;;;;;;;4974238;28;20050;-58
2022/09/20 03:26:12;;;;;;;3.17;1.10;;;;;;;;;;4969072;28;20051;-65
2022/09/20 03:28:50;;;;;;;5.75;0.90;;;;;;;;;;4973941;28;20110;-59
2022/09/20 03:31:21;;;;;;;1.65;0.80;;;;;;;;;;4967351;28;20508;-57
2022/09/20 03:33:53;;;;;;;1.58;0.68;;;;;;;;;;4973920;28;20058;-62
2022/09/20 03:36:26;;;;;;;1.50;0.60;;;;;;;;;;4969824;28;20077;-64
2022/09/20 03:39:02;;;;;;;2.78;0.68;;;;;;;;;;4973618;28;20077;-63
2022/09/20 03:41:36;;;;;;;2.50;0.85;;;;;;;;;;4969852;28;20074;-60
2022/09/20 03:44:09;;;;;;;2.92;0.82;;;;;;;;;;4973623;28;20089;-61
2022/09/20 03:46:41;;;;;;;1.52;0.55;;;;;;;;;;4970370;28;20054;-58
2022/09/20 03:49:25;;;;;;;1.02;0.70;;;;;;;;;;4973112;28;20408;-53
2022/09/20 03:51:56;;;;;;;1.20;0.80;;;;;;;;;;4969317;28;20046;-60
2022/09/20 03:54:34;;;;;;;3.85;0.75;;;;;;;;;;4969639;28;20070;-63
2022/09/20 03:57:10;;;;;;;2.65;1.00;;;;;;;;;;4966932;28;20123;-67
2022/09/20 03:59:44;;;;;;;2.05;0.60;;;;;;;;;;4969697;28;20117;-65
2022/09/20 04:02:20;;;;;;;2.38;0.80;;;;;;;;;;4966722;28;20051;-65
2022/09/20 04:04:50;;;;;;;1.42;0.70;;;;;;;;;;4970362;28;20054;-69
2022/09/20 04:07:19;;;;;;;1.92;0.70;;;;;;;;;;4966480;28;20061;-61
2022/09/20 04:09:59;;;;;;;1.38;0.68;;;;;;;;;;4970508;28;20050;-66
2022/09/20 04:12:30;;;;;;;0.85;0.52;;;;;;;;;;4966280;28;20090;-68
2022/09/20 04:15:03;;;;;;;1.17;0.70;;;;;;;;;;4969276;28;20055;-62
2022/09/20 04:17:35;;;;;;;0.82;0.50;;;;;;;;;;4966492;28;20062;-61
2022/09/20 04:20:05;;;;;;;2.70;0.60;;;;;;;;;;4969888;28;20062;-64
2022/09/20 04:22:31;;;;;;;1.23;0.60;;;;;;;;;;4965750;28;20051;-69
2022/09/20 04:25:02;;;;;;;1.90;0.60;;;;;;;;;;4969308;28;20058;-64
2022/09/20 04:27:34;;;;;;;0.57;0.52;;;;;;;;;;4966124;28;20054;-69
2022/09/20 04:30:03;;;;;;;0.75;0.50;;;;;;;;;;4968812;28;20118;-63
2022/09/20 04:32:29;;;;;;;;;;;;;;;;;;4969730;28;20055;-62
2022/09/20 04:37:44;;;;;;;0.85;0.57;;;;;;;;;;4966871;28;20055;-59
2022/09/20 04:40:20;;;;;;;2.38;0.60;;;;;;;;;;4967663;28;20050;-57
2022/09/20 04:43:17;;;;;;;0.70;0.43;;;;;;;;;;4969149;28;20085;-57
2022/09/20 04:46:03;;;;;;;1.10;0.60;;;;;;;;;;4949851;29;20048;-61
2022/09/20 04:48:49;;;;;;;1.23;0.60;;;;;;;;;;4948931;28;20066;-59
2022/09/20 04:51:37;;;;;;;1.48;0.57;;;;;;;;;;4969024;28;20050;-62
2022/09/20 04:54:33;;;;;;;1.63;0.70;;;;;;;;;;4959433;28;20101;-65
2022/09/20 04:57:09;;;;;;;2.17;0.80;;;;;;;;;;4966834;28;20111;-61
2022/09/20 04:59:45;;;;;;;1.65;0.60;;;;;;;;;;4960929;28;20125;-69
2022/09/20 05:02:27;;;;;;;2.30;0.70;;;;;;;;;;4976258;28;20054;-59
2022/09/20 05:05:13;;;;;;;2.08;1.00;;;;;;;;;;4962473;28;20074;-56
2022/09/20 05:08:04;;;;;;;2.53;1.17;;;;;;;;;;4964513;28;20069;-60
2022/09/20 05:10:53;;;;;;;2.17;0.85;;;;;;;;;;4965235;28;20061;-55
2022/09/20 05:13:28;;;;;;;2.72;1.00;;;;;;;;;;4966947;28;20117;-57
2022/09/20 05:15:59;;;;;;;2.15;1.20;;;;;;;;;;4961847;28;20059;-56
2022/09/20 05:18:38;;;;;;;2.90;1.00;;;;;;;;;;4982960;28;20050;-57
2022/09/20 05:21:15;;;;;;;4.53;1.00;;;;;;;;;;4960835;28;20061;-64
2022/09/20 05:24:02;;;;;;;3.17;1.15;;;;;;;;;;4963863;28;20129;-68
2022/09/20 05:26:37;;;;;;;4.87;1.20;;;;;;;;;;4958714;28;20051;-60
2022/09/20 05:29:10;;;;;;;2.28;1.05;;;;;;;;;;4964105;28;20195;-60
2022/09/20 05:31:41;;;;;;;1.63;1.00;;;;;;;;;;4962450;28;20059;-66
2022/09/20 05:34:13;;;;;;;2.47;1.20;;;;;;;;;;4965567;28;20101;-58
2022/09/20 05:36:43;;;;;;;3.63;1.35;;;;;;;;;;4963555;28;20087;-65
2022/09/20 05:39:17;;;;;;;2.13;1.10;;;;;;;;;;4967963;28;20085;-58
2022/09/20 05:41:49;;;;;;;4.32;1.45;;;;;;;;;;4964230;28;20047;-67
2022/09/20 05:44:24;;;;;;;5.50;1.15;;;;;;;;;;4967814;28;20058;-63
2022/09/20 05:46:58;;;;;;;3.15;1.17;;;;;;;;;;4964013;28;20056;-61
2022/09/20 05:49:36;;;;;;;1.73;1.17;;;;;;;;;;4968466;28;20065;-63
2022/09/20 05:52:14;;;;;;;2.75;1.25;;;;;;;;;;4964389;28;20114;-62
2022/09/20 05:54:51;;;;;;;3.67;1.08;;;;;;;;;;4944265;28;20150;-64
2022/09/20 05:57:24;;;;;;;2.33;0.93;;;;;;;;;;4944787;28;20054;-61
2022/09/20 05:59:57;;;;;;;3.78;1.45;;;;;;;;;;4963478;28;20047;-66
2022/09/20 06:02:32;;;;;;;4.10;1.70;;;;;;;;;;4955693;28;20059;-69
2022/09/20 06:05:02;;;;;;;4.63;1.63;;;;;;;;;;4942304;29;20048;-69
2022/09/20 06:07:32;;;;;;;3.05;1.52;;;;;;;;;;4957456;28;20070;-67
2022/09/20 06:10:19;;;;;;;4.45;1.60;;;;;;;;;;4964663;28;20062;-66
2022/09/20 06:12:51;;;;;;;3.22;1.50;;;;;;;;;;4944255;29;20055;-71
2022/09/20 06:15:20;;;;;;;3.95;1.30;;;;;;;;;;4948303;29;20066;-68
2022/09/20 06:17:53;;;;;;;5.80;1.60;;;;;;;;;;4943263;29;20051;-72
2022/09/20 06:20:25;;;;;;;4.45;1.60;;;;;;;;;;4947405;28;20055;-68
2022/09/20 06:22:53;;;;;;;10.75;1.48;;;;;;;;;;4939757;28;20062;-72
2022/09/20 06:25:22;;;;;;;4.93;1.40;;;;;;;;;;4927892;29;20052;-71
2022/09/20 06:27:51;;;;;;;4.70;1.60;;;;;;;;;;4931481;29;20051;-62
2022/09/20 06:30:19;;;;;;;9.00;1.67;;;;;;;;;;4947336;29;20051;-66
2022/09/20 06:32:57;;;;;;;3.50;1.55;;;;;;;;;;4944261;28;20059;-66
2022/09/20 06:35:26;;;;;;;6.05;1.55;;;;;;;;;;4948120;28;20107;-64
2022/09/20 06:43:23;;;;;;;3.15;1.45;;;;;;;;;;4942982;28;20043;-69
2022/09/20 06:45:50;;;;;;;2.92;1.25;;;;;;;;;;4948302;28;20051;-60
2022/09/20 06:48:18;;;;;;;2.03;1.17;;;;;;;;;;4944642;28;20047;-58
2022/09/20 06:50:45;;;;;;;3.72;1.35;;;;;;;;;;4948364;28;20056;-65
2022/09/20 06:53:15;;;;;;;3.92;1.40;;;;;;;;;;4951122;28;20157;-65
2022/09/20 06:55:43;;;;;;;4.78;2.08;;;;;;;;;;4951552;29;20079;-66
2022/09/20 06:58:10;;;;;;;7.68;2.83;;;;;;;;;;4951759;29;20071;-59
2022/09/20 07:00:38;;;;;;;8.00;3.03;;;;;;;;;;4948805;28;20063;-64
2022/09/20 07:03:05;;;;;;;5.43;1.70;;;;;;;;;;4952117;28;20051;-63
2022/09/20 07:05:33;;;;;;;5.43;2.00;;;;;;;;;;4931949;28;20074;-66
2022/09/20 07:07:59;;;;;;;3.30;1.58;;;;;;;;;;4945125;28;20055;-66
2022/09/20 07:10:28;;;;;;;3.22;1.40;;;;;;;;;;4934552;28;20047;-68
2022/09/20 07:12:55;;;;;;;5.32;1.58;;;;;;;;;;4948599;28;20143;-65
2022/09/20 07:15:23;;;;;;;2.45;1.25;;;;;;;;;;4940971;28;20142;-70
2022/09/20 07:17:50;;;;;;;5.38;1.50;;;;;;;;;;4951554;29;20066;-67
2022/09/20 07:20:17;;;;;;;5.35;1.52;;;;;;;;;;4956529;28;20090;-63
2022/09/20 07:22:45;;;;;;;7.47;1.55;;;;;;;;;;4970476;28;20050;-65
2022/09/20 07:25:11;;;;;;;2.80;1.25;;;;;;;;;;4958650;28;20055;-67
2022/09/20 07:27:38;;;;;;;4.35;1.60;;;;;;;;;;4951559;28;20074;-65
2022/09/20 07:30:05;;;;;;;4.28;1.85;;;;;;;;;;4947175;28;20059;-64
2022/09/20 07:32:32;;;;;;;3.83;1.73;;;;;;;;;;4940214;29;20056;-69
2022/09/20 07:34:58;;;;;;;6.40;1.52;;;;;;;;;;4948767;28;20100;-66
2022/09/20 07:37:25;;;;;;;3.60;1.20;;;;;;;;;;4970217;28;20102;-59
2022/09/20 07:39:53;;;;;;;4.65;1.38;;;;;;;;;;4966374;28;20066;-56
2022/09/20 07:42:20;;;;;;;6.05;1.55;;;;;;;;;;4947039;28;20052;-70
2022/09/20 07:44:47;;;;;;;3.67;1.48;;;;;;;;;;4932219;29;20066;-65
2022/09/20 07:47:14;;;;;;;3.95;1.50;;;;;;;;;;4945157;28;20078;-65
2022/09/20 07:49:40;;;;;;;8.00;1.40;;;;;;;;;;4951141;29;20111;-64
2022/09/20 07:52:09;;;;;;;4.85;1.40;;;;;;;;;;4947597;28;20063;-70
2022/09/20 07:54:35;;;;;;;4.63;1.30;;;;;;;;;;4950555;28;20105;-71
2022/09/20 07:57:04;;;;;;;4.28;1.50;;;;;;;;;;4947231;28;20059;-72
2022/09/20 07:59:31;;;;;;;5.63;1.52;;;;;;;;;;4950653;28;20055;-60
2022/09/20 08:01:59;;;;;;;3.33;1.05;;;;;;;;;;4947101;28;20117;-60
2022/09/20 08:04:26;;;;;;;3.90;1.13;;;;;;;;;;4951002;28;20059;-57
2022/09/20 08:06:52;;;;;;;2.08;0.90;;;;;;;;;;4947130;28;20058;-66
2022/09/20 08:09:19;;;;;;;2.65;1.05;;;;;;;;;;4950269;28;20075;-61
2022/09/20 08:11:46;;;;;;;2.22;0.90;;;;;;;;;;4946773;28;20059;-62
2022/09/20 08:14:15;;;;;;;1.95;1.00;;;;;;;;;;4950293;28;20055;-64
2022/09/20 08:16:43;;;;;;;4.13;0.93;;;;;;;;;;4946671;28;20051;-61
2022/09/20 08:19:14;;;;;;;1.38;1.00;;;;;;;;;;4950550;29;20058;-53
2022/09/20 08:21:40;;;;;;;3.80;1.20;;;;;;;;;;4947110;29;20111;-53
2022/09/20 08:24:07;;;;;;;4.15;0.90;;;;;;;;;;4950527;28;20058;-63
2022/09/20 08:26:34;;;;;;;2.13;0.90;;;;;;;;;;4950332;28;20048;-71
2022/09/20 08:29:01;;;;;;;4.05;1.10;;;;;;;;;;4946753;28;20061;-68
2022/09/20 08:31:35;;;;;;;3.47;1.00;;;;;;;;;;4950471;28;20142;-66
2022/09/20 08:34:02;;;;;;;8.07;1.00;;;;;;;;;;4946512;28;20106;-68
2022/09/20 08:36:30;;;;;;;2.15;0.90;;;;;;;;;;4950659;28;20055;-70
2022/09/20 08:38:56;;;;;;;4.85;0.82;;;;;;;;;;4945733;28;20055;-65
2022/09/20 08:41:26;;;;;;;4.18;0.88;;;;;;;;;;4949955;28;20109;-62
2022/09/20 08:43:54;;;;;;;5.35;1.10;;;;;;;;;;4945818;28;20101;-58
2022/09/20 08:46:23;;;;;;;5.93;0.95;;;;;;;;;;4950466;28;20059;-65
2022/09/20 08:48:52;;;;;;;2.72;0.80;;;;;;;;;;4944428;28;20095;-67
2022/09/20 08:51:19;;;;;;;3.33;0.80;;;;;;;;;;4949692;28;20051;-57
2022/09/20 08:53:47;;;;;;;4.22;0.85;;;;;;;;;;4941544;28;20048;-62
2022/09/20 08:56:13;;;;;;;3.35;1.20;;;;;;;;;;4930788;28;20058;-65
2022/09/20 08:58:40;;;;;;;7.72;0.80;;;;;;;;;;4933640;28;20059;-62
2022/09/20 09:01:07;;;;;;;2.92;0.75;;;;;;;;;;4950032;28;20039;-62
2022/09/20 09:03:34;;;;;;;3.65;1.25;;;;;;;;;;4949920;28;20047;-58
2022/09/20 09:06:02;;;;;;;4.78;0.82;;;;;;;;;;4968781;28;20073;-61
2022/09/20 09:08:31;;;;;;;2.15;0.68;;;;;;;;;;4961215;28;20057;-66
2022/09/20 09:10:59;;;;;;;3.17;1.00;;;;;;;;;;4930718;28;20087;-56
2022/09/20 09:13:27;;;;;;;1.63;0.67;;;;;;;;;;4930108;29;20099;-70
2022/09/20 09:15:56;;;;;;;4.38;1.17;;;;;;;;;;4947699;28;20059;-55
2022/09/20 09:18:28;;;;;;;1.30;0.70;;;;;;;;;;4949347;28;20055;-64
2022/09/20 09:20:56;;;;;;;2.33;0.63;;;;;;;;;;4962909;28;20146;-63
2022/09/20 09:23:25;;;;;;;5.85;0.80;;;;;;;;;;4968595;28;20158;-59
2022/09/20 09:25:53;;;;;;;2.70;0.80;;;;;;;;;;4948184;28;20055;-59
2022/09/20 09:28:22;;;;;;;5.13;1.00;;;;;;;;;;4949420;29;20062;-58
2022/09/20 09:30:49;;;;;;;2.75;0.80;;;;;;;;;;4958241;28;20062;-54
2022/09/20 09:33:23;;;;;;;4.10;0.90;;;;;;;;;;4968901;28;20078;-50
2022/09/20 09:35:58;;;;;;;3.72;0.95;;;;;;;;;;4951438;28;20047;-64
2022/09/20 09:38:27;;;;;;;1.55;0.82;;;;;;;;;;4957289;28;20109;-57
2022/09/20 09:40:55;;;;;;;1.38;0.80;;;;;;;;;;4941801;28;20087;-64
2022/09/20 09:43:25;;;;;;;2.90;0.70;;;;;;;;;;4929335;29;20371;-65
2022/09/20 09:45:52;;;;;;;1.60;0.75;;;;;;;;;;4944735;28;20050;-59
2022/09/20 09:48:20;;;;;;;5.57;0.98;;;;;;;;;;4969690;28;20137;-64
2022/09/20 09:50:47;;;;;;;2.55;1.05;;;;;;;;;;4963983;28;20063;-62
2022/09/20 09:53:15;;;;;;;4.65;1.08;;;;;;;;;;4967859;28;20082;-67
2022/09/20 09:56:03;;;;;;;6.22;1.08;;;;;;;;;;4954689;28;20056;-69
2022/09/20 09:58:38;;;;;;;1.73;0.80;;;;;;;;;;4925030;29;20123;-68
2022/09/20 10:02:09;;;;;;;2.60;1.00;;;;;;;;;;4938199;28;20397;-64
2022/09/20 10:04:58;;;;;;;3.30;1.00;;;;;;;;;;4945089;28;20222;-64
2022/09/20 10:07:39;;;;;;;3.47;1.05;;;;;;;;;;4923915;28;20058;-58
2022/09/20 10:10:19;;;;;;;6.35;2.40;;;;;;;;;;4938011;29;20047;-56
2022/09/20 10:12:57;;;;;;;3.38;0.95;;;;;;;;;;4939111;28;20055;-67
2022/09/20 10:15:56;;;;;;;0.98;0.75;;;;;;;;;;4943362;28;20050;-61
2022/09/20 10:18:33;;;;;;;1.73;0.73;;;;;;;;;;4900035;28;20055;-63
2022/09/20 10:21:08;;;;;;;2.33;0.85;;;;;;;;;;4940738;28;20056;-66
2022/09/20 10:24:12;;;;;;;4.05;0.77;;;;;;;;;;4925394;29;20113;-60
2022/09/20 10:26:55;;;;;;;1.58;0.70;;;;;;;;;;4920585;28;20062;-58
2022/09/20 10:29:28;;;;;;;5.35;0.57;;;;;;;;;;4934871;29;20143;-60
2022/09/20 10:32:06;;;;;;;2.75;0.60;;;;;;;;;;4930837;28;20117;-58
2022/09/20 10:34:41;;;;;;;2.28;0.60;;;;;;;;;;4972887;28;20054;-55
2022/09/20 10:37:13;;;;;;;2.75;0.70;;;;;;;;;;4963460;28;20047;-58
2022/09/20 10:39:40;;;;;;;4.20;0.93;;;;;;;;;;4952668;28;20067;-58
2022/09/20 10:45:02;;;;;;;3.42;0.75;;;;;;;;;;4985737;28;20062;-63
2022/09/20 10:47:33;;;;;;;3.47;0.60;;;;;;;;;;4962295;28;20149;-62
2022/09/20 10:50:04;;;;;;;1.90;0.70;;;;;;;;;;4933365;29;20067;-65
2022/09/20 10:52:38;;;;;;;3.35;0.80;;;;;;;;;;4935952;28;20154;-62
2022/09/20 10:55:19;;;;;;;3.70;0.75;;;;;;;;;;4969427;28;20121;-58
2022/09/20 10:57:55;;;;;;;2.90;0.80;;;;;;;;;;4950072;28;20058;-63
2022/09/20 11:00:23;;;;;;;6.95;0.90;;;;;;;;;;4935959;29;20051;-58
2022/09/20 11:03:00;;;;;;;5.75;1.02;;;;;;;;;;4932313;28;20066;-69
2022/09/20 11:05:30;;;;;;;2.58;0.70;;;;;;;;;;4951513;28;20166;-67
2022/09/20 11:08:01;;;;;;;9.70;1.85;;;;;;;;;;4932127;28;20066;-54
2022/09/20 11:10:29;;;;;;;3.10;0.80;;;;;;;;;;4953966;28;20066;-59
2022/09/20 11:12:59;;;;;;;2.05;0.68;;;;;;;;;;4953367;28;20046;-65
2022/09/20 11:15:27;;;;;;;6.13;1.10;;;;;;;;;;4933205;29;20066;-66
2022/09/20 11:18:00;;;;;;;4.13;0.63;;;;;;;;;;4951829;28;20058;-63
2022/09/20 11:20:28;;;;;;;4.10;0.77;;;;;;;;;;4948607;28;20059;-66
2022/09/20 11:22:57;;;;;;;1.40;0.70;;;;;;;;;;4945388;28;20058;-61
2022/09/20 11:25:29;;;;;;;2.33;0.88;;;;;;;;;;4950209;28;20058;-67
2022/09/20 11:27:58;;;;;;;4.78;0.65;;;;;;;;;;4954629;28;20105;-68
2022/09/20 11:30:24;;;;;;;4.85;0.70;;;;;;;;;;4937466;28;20055;-71
2022/09/20 11:32:53;;;;;;;4.05;0.70;;;;;;;;;;4935446;29;20059;-65
2022/09/20 11:35:29;;;;;;;2.17;0.82;;;;;;;;;;4942273;28;20058;-63
2022/09/20 11:38:00;;;;;;;2.35;0.50;;;;;;;;;;4965916;28;20059;-64
2022/09/20 11:40:29;;;;;;;1.35;0.60;;;;;;;;;;4940231;28;20055;-59
2022/09/20 11:42:57;;;;;;;4.75;0.65;;;;;;;;;;4946388;28;20130;-64
2022/09/20 11:45:24;;;;;;;3.13;0.77;;;;;;;;;;4939462;28;20039;-67
2022/09/20 11:47:53;;;;;;;1.80;0.60;;;;;;;;;;4954191;28;20065;-64
2022/09/20 11:50:37;;;;;;;4.32;0.80;;;;;;;;;;4949274;28;20042;-63
2022/09/20 11:53:09;;;;;;;3.10;0.68;;;;;;;;;;4961577;28;20054;-70
2022/09/20 11:55:41;;;;;;;7.45;0.90;;;;;;;;;;4962064;28;20059;-69
2022/09/20 11:58:09;;;;;;;5.15;0.60;;;;;;;;;;4954456;28;20055;-69
2022/09/20 12:00:36;;;;;;;2.08;0.60;;;;;;;;;;4967436;28;20101;-69
2022/09/20 12:03:06;;;;;;;3.97;0.65;;;;;;;;;;4954012;28;20083;-66
2022/09/20 12:05:36;;;;;;;6.60;1.15;;;;;;;;;;4950961;28;20081;-69
2022/09/20 12:08:04;;;;;;;2.25;0.68;;;;;;;;;;4953374;28;20058;-64
2022/09/20 12:10:34;;;;;;;2.78;0.77;;;;;;;;;;4950828;28;20181;-63
2022/09/20 12:13:02;;;;;;;2.05;0.50;;;;;;;;;;4953846;28;20083;-62
2022/09/20 12:15:30;;;;;;;1.60;0.85;;;;;;;;;;4953509;28;20051;-64
2022/09/20 12:18:07;;;;;;;1.57;0.53;;;;;;;;;;4969156;28;20105;-65
2022/09/20 12:20:48;;;;;;;1.55;0.75;;;;;;;;;;4973203;28;20387;-69
2022/09/20 12:23:34;;;;;;;2.05;0.50;;;;;;;;;;4970798;28;20051;-68
2022/09/20 12:26:03;;;;;;;6.78;1.15;;;;;;;;;;4969049;28;20216;-58
2022/09/20 12:28:34;;;;;;;6.22;1.33;;;;;;;;;;4988965;28;20066;-72
2022/09/20 12:31:19;;;;;;;7.13;1.55;;;;;;;;;;4972728;28;20050;-61
2022/09/20 12:33:56;;;;;;;6.68;0.80;;;;;;;;;;4972031;28;20058;-62
2022/09/20 12:36:23;;;;;;;1.98;0.70;;;;;;;;;;4969808;28;20062;-72
2022/09/20 12:38:56;;;;;;;3.15;1.20;;;;;;;;;;4986381;28;20094;-71
2022/09/20 12:41:24;;;;;;;5.82;0.70;;;;;;;;;;4989920;28;20090;-69
2022/09/20 12:43:57;;;;;;;1.58;0.65;;;;;;;;;;4966304;28;20058;-69
2022/09/20 12:46:27;;;;;;;2.17;0.68;;;;;;;;;;4972434;28;20089;-68
2022/09/20 12:49:09;;;;;;;1.13;0.68;;;;;;;;;;4968515;28;20050;-64
2022/09/20 12:54:20;;;;;;;3.53;0.80;;;;;;;;;;4945932;28;20107;-68
2022/09/20 12:56:48;;;;;;;3.60;0.70;;;;;;;;;;4949262;29;20063;-69
2022/09/20 12:59:20;;;;;;;4.68;0.70;;;;;;;;;;4962660;28;20300;-65
2022/09/20 13:01:47;;;;;;;2.63;0.60;;;;;;;;;;4985007;28;20055;-70
2022/09/20 13:04:29;;;;;;;4.70;0.70;;;;;;;;;;4979304;28;20054;-67
2022/09/20 13:07:26;;;;;;;4.60;0.60;;;;;;;;;;4985161;28;20059;-71
2022/09/20 13:09:53;;;;;;;3.47;0.70;;;;;;;;;;4982618;28;20151;-61
2022/09/20 13:12:21;;;;;;;3.72;0.90;;;;;;;;;;4988414;28;20039;-60
2022/09/20 13:14:49;;;;;;;6.70;0.90;;;;;;;;;;4968214;28;20097;-69
2022/09/20 13:17:22;;;;;;;2.08;0.60;;;;;;;;;;4968601;28;20059;-72
2022/09/20 13:19:50;;;;;;;1.90;0.52;;;;;;;;;;4964573;28;20067;-68
2022/09/20 13:22:20;;;;;;;7.85;0.77;;;;;;;;;;4968595;28;20094;-70
2022/09/20 13:24:48;;;;;;;4.47;0.80;;;;;;;;;;4949680;28;20059;-71
2022/09/20 13:27:16;;;;;;;2.70;0.50;;;;;;;;;;4930155;29;20055;-65
2022/09/20 13:29:45;;;;;;;3.92;0.70;;;;;;;;;;4937334;28;20074;-68
2022/09/20 13:32:18;;;;;;;0.85;0.40;;;;;;;;;;4949046;29;20058;-65
2022/09/20 13:34:45;;;;;;;3.47;0.73;;;;;;;;;;4944861;28;20056;-71
2022/09/20 13:37:22;;;;;;;2.13;0.75;;;;;;;;;;4949178;29;20070;-70
2022/09/20 13:39:53;;;;;;;1.48;0.55;;;;;;;;;;4934017;28;20134;-64
2022/09/20 13:42:19;;;;;;;3.30;0.65;;;;;;;;;;4949251;29;20115;-70
2022/09/20 13:44:47;;;;;;;6.05;1.10;;;;;;;;;;4945144;28;20399;-64
2022/09/20 13:47:24;;;;;;;8.27;0.80;;;;;;;;;;4948523;29;20051;-64
2022/09/20 13:49:51;;;;;;;1.10;0.65;;;;;;;;;;4945501;28;20055;-66
2022/09/20 13:52:25;;;;;;;1.35;0.50;;;;;;;;;;4950336;28;20090;-66
2022/09/20 13:54:53;;;;;;;1.67;0.60;;;;;;;;;;4959462;28;20104;-70
2022/09/20 13:57:22;;;;;;;2.33;0.65;;;;;;;;;;4970953;28;20066;-63
2022/09/20 13:59:51;;;;;;;3.35;0.90;;;;;;;;;;4982968;28;20054;-63
2022/09/20 14:02:21;;;;;;;1.90;0.80;;;;;;;;;;4971537;28;20058;-57
2022/09/20 14:04:51;;;;;;;3.22;0.75;;;;;;;;;;4968897;28;20058;-72
2022/09/20 14:07:18;;;;;;;1.58;0.50;;;;;;;;;;4970748;28;20054;-63
2022/09/20 14:09:45;;;;;;;2.13;0.80;;;;;;;;;;4967414;28;20113;-70
2022/09/20 14:12:12;;;;;;;4.47;0.93;;;;;;;;;;4964291;28;20068;-72
2022/09/20 14:14:40;;;;;;;3.30;0.70;;;;;;;;;;4967414;28;20042;-67
2022/09/20 14:17:08;;;;;;;1.42;0.65;;;;;;;;;;4961168;28;20050;-70
2022/09/20 14:19:39;;;;;;;2.95;0.60;;;;;;;;;;4968026;28;20046;-68
2022/09/20 14:22:06;;;;;;;0.75;0.60;;;;;;;;;;4963507;28;20062;-66
2022/09/20 14:24:34;;;;;;;1.73;0.60;;;;;;;;;;4967490;28;20054;-67
2022/09/20 14:27:05;;;;;;;0.60;0.43;;;;;;;;;;4963814;28;20050;-63
2022/09/20 14:29:39;;;;;;;4.03;0.80;;;;;;;;;;4967720;28;20070;-68
2022/09/20 14:32:10;;;;;;;0.98;0.40;;;;;;;;;;4965834;28;20054;-71
2022/09/20 14:34:37;;;;;;;4.38;0.82;;;;;;;;;;4962074;28;20042;-65
2022/09/20 14:37:06;;;;;;;2.72;0.60;;;;;;;;;;4966332;28;20038;-68
2022/09/20 14:39:32;;;;;;;2.97;0.68;;;;;;;;;;4970657;28;20058;-66
2022/09/20 14:41:59;;;;;;;2.80;1.00;;;;;;;;;;4966230;28;20113;-67
2022/09/20 14:44:28;;;;;;;3.00;0.45;;;;;;;;;;4970209;28;20065;-64
2022/09/20 14:46:55;;;;;;;3.58;0.60;;;;;;;;;;4966424;28;20054;-68
2022/09/20 14:49:31;;;;;;;3.70;0.60;;;;;;;;;;4970754;28;20082;-64
2022/09/20 14:52:17;;;;;;;6.88;0.90;;;;;;;;;;4966976;28;20043;-68
2022/09/20 14:54:43;;;;;;;2.58;0.60;;;;;;;;;;4986503;28;20126;-64
2022/09/20 14:57:10;;;;;;;4.93;0.95;;;;;;;;;;4965258;28;20057;-68
2022/09/20 14:59:38;;;;;;;4.43;0.60;;;;;;;;;;4967000;28;20062;-67
2022/09/20 15:02:12;;;;;;;4.28;0.80;;;;;;;;;;4965496;28;20054;-71
2022/09/20 15:04:41;;;;;;;2.63;0.57;;;;;;;;;;4968690;28;20050;-74
2022/09/20 15:07:10;;;;;;;1.38;0.50;;;;;;;;;;4965597;28;20053;-70
2022/09/20 15:09:37;;;;;;;3.47;0.77;;;;;;;;;;4963182;28;20062;-64
2022/09/20 15:12:04;;;;;;;1.77;0.70;;;;;;;;;;4965464;28;20108;-73
2022/09/20 15:14:31;;;;;;;1.20;0.50;;;;;;;;;;4957869;28;20046;-70
2022/09/20 15:16:58;;;;;;;2.10;0.77;;;;;;;;;;4970886;28;20145;-69
2022/09/20 15:19:25;;;;;;;3.63;0.70;;;;;;;;;;4965622;28;20061;-66
2022/09/20 15:21:53;;;;;;;1.95;0.70;;;;;;;;;;4968722;28;20050;-70
2022/09/20 15:24:20;;;;;;;2.05;0.70;;;;;;;;;;4963040;28;20042;-67
2022/09/20 15:26:47;;;;;;;2.03;0.98;;;;;;;;;;4967519;28;20062;-61